sensor_id;sensor_type;location;lat;lon;timestamp;pressure;altitude;pressure_sealevel;temperature;humidity
11415;BME280;5763;42.714;23.244;2023-09-19T00:01:34;94838.09;;;18.80;61.60
11415;BME280;5763;42.714;23.244;2023-09-19T00:04:03;94947.56;;;19.54;62.44
11415;BME280;5763;42.714;23.244;2023-09-19T00:06:35;94895.25;;;19.25;62.35
11415;BME280;5763;42.714;23.244;2023-09-19T00:09:02;94876.50;;;19.14;62.64
11415;BME280;5763;42.714;23.244;2023-09-19T00:11:29;94942.25;;;19.56;62.51
11415;BME280;5763;42.714;23.244;2023-09-19T00:13:57;94947.03;;;19.55;62.85
11415;BME280;5763;42.714;23.244;2023-09-19T00:16:25;94948.06;;;19.52;63.07
11415;BME280;5763;42.714;23.244;2023-09-19T00:18:52;94964.97;;;19.49;63.28
11415;BME280;5763;42.714;23.244;2023-09-19T00:21:22;94876.13;;;18.79;63.47
11415;BME280;5763;42.714;23.244;2023-09-19T00:23:49;94910.03;;;19.11;63.71
11415;BME280;5763;42.714;23.244;2023-09-19T00:26:17;94773.34;;;18.24;63.45
11415;BME280;5763;42.714;23.244;2023-09-19T00:28:46;94948.75;;;19.31;63.81
11415;BME280;5763;42.714;23.244;2023-09-19T00:31:13;94874.19;;;18.96;63.75
11415;BME280;5763;42.714;23.244;2023-09-19T00:33:41;94858.50;;;18.82;64.19
11415;BME280;5763;42.714;23.244;2023-09-19T00:36:08;94927.75;;;19.19;64.27
11415;BME280;5763;42.714;23.244;2023-09-19T00:38:37;94876.38;;;18.76;64.55
11415;BME280;5763;42.714;23.244;2023-09-19T00:41:04;94820.28;;;18.39;64.82
11415;BME280;5763;42.714;23.244;2023-09-19T00:43:31;94934.50;;;19.07;65.09
11415;BME280;5763;42.714;23.244;2023-09-19T00:46:00;94940.28;;;19.03;64.44
11415;BME280;5763;42.714;23.244;2023-09-19T00:48:29;94827.13;;;18.07;64.50
11415;BME280;5763;42.714;23.244;2023-09-19T00:50:59;94933.69;;;18.90;64.52
11415;BME280;5763;42.714;23.244;2023-09-19T00:53:31;94848.44;;;18.32;64.34
11415;BME280;5763;42.714;23.244;2023-09-19T00:56:01;94875.06;;;18.60;64.88
11415;BME280;5763;42.714;23.244;2023-09-19T00:58:29;94867.13;;;18.37;65.11
11415;BME280;5763;42.714;23.244;2023-09-19T01:00:59;94886.69;;;18.70;64.94
11415;BME280;5763;42.714;23.244;2023-09-19T01:03:27;94911.09;;;18.60;65.17
11415;BME280;5763;42.714;23.244;2023-09-19T01:05:54;94962.66;;;18.89;65.56
11415;BME280;5763;42.714;23.244;2023-09-19T01:08:21;94940.69;;;18.80;65.49
11415;BME280;5763;42.714;23.244;2023-09-19T01:10:52;94791.25;;;17.50;64.68
11415;BME280;5763;42.714;23.244;2023-09-19T01:13:30;94891.47;;;18.27;65.63
11415;BME280;5763;42.714;23.244;2023-09-19T01:16:04;94849.66;;;17.88;66.07
11415;BME280;5763;42.714;23.244;2023-09-19T01:18:43;94927.06;;;18.34;65.90
11415;BME280;5763;42.714;23.244;2023-09-19T01:21:18;94913.63;;;18.22;66.40
11415;BME280;5763;42.714;23.244;2023-09-19T01:27:06;94866.50;;;17.80;66.66
11415;BME280;5763;42.714;23.244;2023-09-19T01:29:42;94916.31;;;18.11;66.96
11415;BME280;5763;42.714;23.244;2023-09-19T01:32:16;94942.56;;;18.21;66.69
11415;BME280;5763;42.714;23.244;2023-09-19T01:34:47;94871.78;;;17.83;66.83
11415;BME280;5763;42.714;23.244;2023-09-19T01:37:16;94832.28;;;17.52;66.79
11415;BME280;5763;42.714;23.244;2023-09-19T01:39:46;94853.47;;;17.60;66.73
11415;BME280;5763;42.714;23.244;2023-09-19T01:42:23;94933.44;;;18.14;66.58
11415;BME280;5763;42.714;23.244;2023-09-19T01:44:55;94931.59;;;18.01;66.45
11415;BME280;5763;42.714;23.244;2023-09-19T01:47:32;94942.97;;;18.08;66.63
11415;BME280;5763;42.714;23.244;2023-09-19T01:50:07;94934.38;;;18.01;66.71
11415;BME280;5763;42.714;23.244;2023-09-19T01:52:45;94829.16;;;17.39;66.93
11415;BME280;5763;42.714;23.244;2023-09-19T01:55:15;94887.09;;;17.78;67.20
11415;BME280;5763;42.714;23.244;2023-09-19T01:57:54;94752.25;;;16.86;67.14
11415;BME280;5763;42.714;23.244;2023-09-19T02:00:26;94832.41;;;17.11;67.22
11415;BME280;5763;42.714;23.244;2023-09-19T02:02:58;94860.22;;;17.53;67.18
11415;BME280;5763;42.714;23.244;2023-09-19T02:05:26;94799.50;;;17.13;66.80
11415;BME280;5763;42.714;23.244;2023-09-19T02:07:54;94879.13;;;17.35;67.10
11415;BME280;5763;42.714;23.244;2023-09-19T02:10:22;94946.97;;;17.76;67.26
11415;BME280;5763;42.714;23.244;2023-09-19T02:12:49;94924.31;;;17.72;67.58
11415;BME280;5763;42.714;23.244;2023-09-19T02:15:17;94935.47;;;17.83;67.66
11415;BME280;5763;42.714;23.244;2023-09-19T02:17:44;94931.22;;;17.88;67.67
11415;BME280;5763;42.714;23.244;2023-09-19T02:20:13;94915.00;;;17.75;67.99
11415;BME280;5763;42.714;23.244;2023-09-19T02:22:42;94744.47;;;16.64;68.18
11415;BME280;5763;42.714;23.244;2023-09-19T02:25:09;94839.34;;;17.27;67.86
11415;BME280;5763;42.714;23.244;2023-09-19T02:27:39;94876.94;;;17.39;67.80
11415;BME280;5763;42.714;23.244;2023-09-19T02:30:07;94909.53;;;17.55;67.60
11415;BME280;5763;42.714;23.244;2023-09-19T02:32:34;94848.19;;;17.05;68.14
11415;BME280;5763;42.714;23.244;2023-09-19T02:35:06;94848.97;;;17.11;68.80
11415;BME280;5763;42.714;23.244;2023-09-19T02:37:35;94913.13;;;17.61;68.86
11415;BME280;5763;42.714;23.244;2023-09-19T02:40:02;94910.56;;;17.58;68.65
11415;BME280;5763;42.714;23.244;2023-09-19T02:42:44;94916.31;;;17.54;69.08
11415;BME280;5763;42.714;23.244;2023-09-19T02:45:15;94905.97;;;17.49;69.14
11415;BME280;5763;42.714;23.244;2023-09-19T02:47:43;94906.75;;;17.50;69.18
11415;BME280;5763;42.714;23.244;2023-09-19T02:50:10;94822.22;;;16.98;69.85
11415;BME280;5763;42.714;23.244;2023-09-19T02:52:42;94882.53;;;17.45;69.69
11415;BME280;5763;42.714;23.244;2023-09-19T02:55:10;94846.06;;;17.20;69.70
11415;BME280;5763;42.714;23.244;2023-09-19T02:57:38;94873.25;;;17.48;69.67
11415;BME280;5763;42.714;23.244;2023-09-19T03:00:07;94893.25;;;17.63;69.39
11415;BME280;5763;42.714;23.244;2023-09-19T03:02:36;94830.09;;;17.35;69.11
11415;BME280;5763;42.714;23.244;2023-09-19T03:05:04;94888.50;;;17.63;69.24
11415;BME280;5763;42.714;23.244;2023-09-19T03:07:33;94720.00;;;16.52;68.91
11415;BME280;5763;42.714;23.244;2023-09-19T03:10:05;94884.41;;;17.58;68.74
11415;BME280;5763;42.714;23.244;2023-09-19T03:12:33;94800.75;;;16.87;69.61
11415;BME280;5763;42.714;23.244;2023-09-19T03:15:00;94882.81;;;17.47;69.65
11415;BME280;5763;42.714;23.244;2023-09-19T03:17:27;94803.06;;;16.94;69.19
11415;BME280;5763;42.714;23.244;2023-09-19T03:19:54;94892.84;;;17.44;69.43
11415;BME280;5763;42.714;23.244;2023-09-19T03:22:22;94877.56;;;17.49;69.45
11415;BME280;5763;42.714;23.244;2023-09-19T03:24:50;94866.19;;;17.47;69.46
11415;BME280;5763;42.714;23.244;2023-09-19T03:27:19;94879.28;;;17.46;69.46
11415;BME280;5763;42.714;23.244;2023-09-19T03:29:46;94911.50;;;17.49;68.84
11415;BME280;5763;42.714;23.244;2023-09-19T03:32:13;94840.31;;;16.98;69.55
11415;BME280;5763;42.714;23.244;2023-09-19T03:34:40;94803.19;;;16.79;69.45
11415;BME280;5763;42.714;23.244;2023-09-19T03:37:09;94838.25;;;16.93;69.57
11415;BME280;5763;42.714;23.244;2023-09-19T03:39:36;94809.06;;;16.67;69.89
11415;BME280;5763;42.714;23.244;2023-09-19T03:42:03;94953.22;;;17.25;69.86
11415;BME280;5763;42.714;23.244;2023-09-19T03:44:34;94935.53;;;17.17;70.52
11415;BME280;5763;42.714;23.244;2023-09-19T03:47:01;94815.09;;;16.45;70.48
11415;BME280;5763;42.714;23.244;2023-09-19T03:49:30;94816.97;;;16.54;71.11
11415;BME280;5763;42.714;23.244;2023-09-19T03:51:57;94752.28;;;16.00;71.37
11415;BME280;5763;42.714;23.244;2023-09-19T03:54:24;94856.66;;;16.76;71.67
11415;BME280;5763;42.714;23.244;2023-09-19T03:56:51;94852.84;;;16.74;71.24
11415;BME280;5763;42.714;23.244;2023-09-19T03:59:18;94882.50;;;16.93;71.52
11415;BME280;5763;42.714;23.244;2023-09-19T04:01:47;94911.66;;;16.94;71.22
11415;BME280;5763;42.714;23.244;2023-09-19T04:04:15;94757.59;;;16.04;70.76
11415;BME280;5763;42.714;23.244;2023-09-19T04:06:44;94857.78;;;16.64;70.57
11415;BME280;5763;42.714;23.244;2023-09-19T04:09:11;94939.84;;;17.18;71.14
11415;BME280;5763;42.714;23.244;2023-09-19T04:11:38;94757.28;;;16.22;70.70
11415;BME280;5763;42.714;23.244;2023-09-19T04:14:05;94912.78;;;17.28;70.66
11415;BME280;5763;42.714;23.244;2023-09-19T04:16:32;94817.56;;;16.63;71.02
11415;BME280;5763;42.714;23.244;2023-09-19T04:19:01;94859.69;;;16.98;71.00
11415;BME280;5763;42.714;23.244;2023-09-19T04:21:29;94825.44;;;16.70;71.24
11415;BME280;5763;42.714;23.244;2023-09-19T04:23:56;94943.28;;;17.33;71.01
11415;BME280;5763;42.714;23.244;2023-09-19T04:26:23;94805.72;;;16.58;70.76
11415;BME280;5763;42.714;23.244;2023-09-19T04:28:51;94837.63;;;16.84;70.80
11415;BME280;5763;42.714;23.244;2023-09-19T04:31:18;94896.50;;;17.35;71.00
11415;BME280;5763;42.714;23.244;2023-09-19T04:33:47;94835.53;;;16.99;71.25
11415;BME280;5763;42.714;23.244;2023-09-19T04:36:18;94766.25;;;16.57;70.65
11415;BME280;5763;42.714;23.244;2023-09-19T04:38:47;94861.84;;;17.14;70.52
11415;BME280;5763;42.714;23.244;2023-09-19T04:41:15;94846.19;;;17.06;70.05
11415;BME280;5763;42.714;23.244;2023-09-19T04:43:43;94742.84;;;16.32;70.12
11415;BME280;5763;42.714;23.244;2023-09-19T04:46:10;94942.88;;;17.41;70.46
11415;BME280;5763;42.714;23.244;2023-09-19T04:48:40;94862.78;;;17.06;70.70
11415;BME280;5763;42.714;23.244;2023-09-19T04:51:07;94883.28;;;17.19;70.64
11415;BME280;5763;42.714;23.244;2023-09-19T04:53:37;94924.63;;;17.54;70.64
11415;BME280;5763;42.714;23.244;2023-09-19T04:56:05;94779.09;;;16.85;70.19
11415;BME280;5763;42.714;23.244;2023-09-19T04:58:33;94888.50;;;17.63;70.00
11415;BME280;5763;42.714;23.244;2023-09-19T05:01:00;94887.94;;;17.59;70.38
11415;BME280;5763;42.714;23.244;2023-09-19T05:03:29;94821.22;;;17.00;70.79
11415;BME280;5763;42.714;23.244;2023-09-19T05:05:57;94841.03;;;17.45;70.71
11415;BME280;5763;42.714;23.244;2023-09-19T05:08:24;94855.94;;;17.52;70.49
11415;BME280;5763;42.714;23.244;2023-09-19T05:10:52;94772.22;;;17.01;70.35
11415;BME280;5763;42.714;23.244;2023-09-19T05:13:21;94746.75;;;16.91;70.04
11415;BME280;5763;42.714;23.244;2023-09-19T05:15:48;94922.81;;;18.08;70.10
11415;BME280;5763;42.714;23.244;2023-09-19T05:18:15;94833.13;;;17.63;69.91
11415;BME280;5763;42.714;23.244;2023-09-19T05:20:42;94903.06;;;18.26;69.79
11415;BME280;5763;42.714;23.244;2023-09-19T05:23:09;94916.06;;;18.45;69.12
11415;BME280;5763;42.714;23.244;2023-09-19T05:25:39;94897.41;;;18.46;69.13
11415;BME280;5763;42.714;23.244;2023-09-19T05:28:09;94848.38;;;18.21;69.08
11415;BME280;5763;42.714;23.244;2023-09-19T05:30:37;94902.78;;;18.60;69.32
11415;BME280;5763;42.714;23.244;2023-09-19T05:33:05;94914.97;;;18.79;68.93
11415;BME280;5763;42.714;23.244;2023-09-19T05:35:33;94776.75;;;18.02;68.52
11415;BME280;5763;42.714;23.244;2023-09-19T05:38:00;94748.44;;;17.77;68.71
11415;BME280;5763;42.714;23.244;2023-09-19T05:40:27;94743.72;;;17.88;68.54
11415;BME280;5763;42.714;23.244;2023-09-19T05:42:54;94883.53;;;18.99;67.99
11415;BME280;5763;42.714;23.244;2023-09-19T05:45:23;94878.50;;;19.03;68.39
11415;BME280;5763;42.714;23.244;2023-09-19T05:47:50;94765.31;;;18.32;67.54
11415;BME280;5763;42.714;23.244;2023-09-19T05:50:17;94908.22;;;18.91;68.20
11415;BME280;5763;42.714;23.244;2023-09-19T05:52:51;94893.13;;;18.98;68.41
11415;BME280;5763;42.714;23.244;2023-09-19T05:55:19;94881.22;;;18.86;68.60
11415;BME280;5763;42.714;23.244;2023-09-19T05:57:49;94877.44;;;18.84;69.20
11415;BME280;5763;42.714;23.244;2023-09-19T06:00:18;94890.00;;;18.79;70.31
11415;BME280;5763;42.714;23.244;2023-09-19T06:02:50;94749.31;;;18.04;69.88
11415;BME280;5763;42.714;23.244;2023-09-19T06:05:18;94716.81;;;17.99;69.45
11415;BME280;5763;42.714;23.244;2023-09-19T06:07:45;94800.72;;;18.59;68.70
11415;BME280;5763;42.714;23.244;2023-09-19T06:10:12;94878.53;;;19.14;67.99
11415;BME280;5763;42.714;23.244;2023-09-19T06:12:40;94804.25;;;18.65;68.13
11415;BME280;5763;42.714;23.244;2023-09-19T06:15:09;94876.75;;;19.05;68.45
11415;BME280;5763;42.714;23.244;2023-09-19T06:17:41;94882.78;;;19.09;69.22
11415;BME280;5763;42.714;23.244;2023-09-19T06:20:10;94730.84;;;18.33;68.61
11415;BME280;5763;42.714;23.244;2023-09-19T06:22:40;94867.50;;;19.30;68.63
11415;BME280;5763;42.714;23.244;2023-09-19T06:25:09;94797.97;;;18.70;68.75
11415;BME280;5763;42.714;23.244;2023-09-19T06:27:38;94853.84;;;19.21;68.52
11415;BME280;5763;42.714;23.244;2023-09-19T06:30:07;94806.84;;;18.85;68.35
11415;BME280;5763;42.714;23.244;2023-09-19T06:32:35;94848.78;;;19.20;68.05
11415;BME280;5763;42.714;23.244;2023-09-19T06:35:02;94860.44;;;19.35;68.00
11415;BME280;5763;42.714;23.244;2023-09-19T06:37:34;94838.72;;;19.22;68.45
11415;BME280;5763;42.714;23.244;2023-09-19T06:40:05;94776.84;;;18.83;68.88
11415;BME280;5763;42.714;23.244;2023-09-19T06:42:34;94815.75;;;19.22;68.09
11415;BME280;5763;42.714;23.244;2023-09-19T06:45:03;94872.59;;;19.54;67.81
11415;BME280;5763;42.714;23.244;2023-09-19T06:47:31;94834.66;;;19.18;68.06
11415;BME280;5763;42.714;23.244;2023-09-19T06:49:58;94733.94;;;18.62;67.67
11415;BME280;5763;42.714;23.244;2023-09-19T06:52:27;94780.41;;;19.00;67.95
11415;BME280;5763;42.714;23.244;2023-09-19T06:54:56;94844.56;;;19.57;67.86
11415;BME280;5763;42.714;23.244;2023-09-19T06:57:23;94867.28;;;19.78;67.11
11415;BME280;5763;42.714;23.244;2023-09-19T06:59:51;94745.38;;;19.03;67.12
11415;BME280;5763;42.714;23.244;2023-09-19T07:02:18;94879.16;;;19.95;66.55
11415;BME280;5763;42.714;23.244;2023-09-19T07:04:47;94866.78;;;19.90;66.20
11415;BME280;5763;42.714;23.244;2023-09-19T07:07:15;94753.97;;;19.38;64.78
11415;BME280;5763;42.714;23.244;2023-09-19T07:09:42;94742.13;;;19.26;63.74
11415;BME280;5763;42.714;23.244;2023-09-19T07:12:11;94789.78;;;19.69;64.04
11415;BME280;5763;42.714;23.244;2023-09-19T07:14:38;94792.31;;;19.67;63.91
11415;BME280;5763;42.714;23.244;2023-09-19T07:17:06;94885.94;;;20.54;63.35
11415;BME280;5763;42.714;23.244;2023-09-19T07:19:33;94718.59;;;19.60;62.75
11415;BME280;5763;42.714;23.244;2023-09-19T07:22:00;94831.91;;;20.28;62.34
11415;BME280;5763;42.714;23.244;2023-09-19T07:24:28;94874.50;;;20.63;62.43
11415;BME280;5763;42.714;23.244;2023-09-19T07:26:55;94832.94;;;20.19;63.10
11415;BME280;5763;42.714;23.244;2023-09-19T07:29:24;94800.38;;;19.92;63.42
11415;BME280;5763;42.714;23.244;2023-09-19T07:31:51;94754.47;;;19.53;63.90
11415;BME280;5763;42.714;23.244;2023-09-19T07:34:19;94863.00;;;20.21;63.94
11415;BME280;5763;42.714;23.244;2023-09-19T07:36:47;94858.16;;;20.43;62.19
11415;BME280;5763;42.714;23.244;2023-09-19T07:39:14;94812.97;;;19.99;62.31
11415;BME280;5763;42.714;23.244;2023-09-19T07:41:41;94889.69;;;20.68;61.80
11415;BME280;5763;42.714;23.244;2023-09-19T07:44:08;94882.06;;;20.74;61.79
11415;BME280;5763;42.714;23.244;2023-09-19T07:46:38;94747.84;;;19.94;61.69
11415;BME280;5763;42.714;23.244;2023-09-19T07:49:05;94864.31;;;20.88;61.15
11415;BME280;5763;42.714;23.244;2023-09-19T07:51:32;94753.63;;;19.96;61.73
11415;BME280;5763;42.714;23.244;2023-09-19T07:53:59;94904.53;;;20.92;62.32
11415;BME280;5763;42.714;23.244;2023-09-19T07:56:27;94839.63;;;20.68;62.48
11415;BME280;5763;42.714;23.244;2023-09-19T07:58:54;94754.88;;;20.12;61.75
11415;BME280;5763;42.714;23.244;2023-09-19T08:01:23;94739.22;;;19.98;61.15
11415;BME280;5763;42.714;23.244;2023-09-19T08:03:54;94747.47;;;20.36;60.92
11415;BME280;5763;42.714;23.244;2023-09-19T08:06:21;94865.94;;;21.18;60.92
11415;BME280;5763;42.714;23.244;2023-09-19T08:08:51;94868.66;;;21.35;60.64
11415;BME280;5763;42.714;23.244;2023-09-19T08:11:20;94726.16;;;20.50;60.27
11415;BME280;5763;42.714;23.244;2023-09-19T08:13:50;94735.28;;;20.45;59.76
11415;BME280;5763;42.714;23.244;2023-09-19T08:16:18;94811.13;;;21.08;60.10
11415;BME280;5763;42.714;23.244;2023-09-19T08:18:48;94753.63;;;20.70;59.70
11415;BME280;5763;42.714;23.244;2023-09-19T08:21:22;94846.41;;;21.64;59.63
11415;BME280;5763;42.714;23.244;2023-09-19T08:23:50;94811.13;;;21.43;58.73
11415;BME280;5763;42.714;23.244;2023-09-19T08:26:18;94837.97;;;21.81;57.45
11415;BME280;5763;42.714;23.244;2023-09-19T08:28:45;94821.59;;;21.66;57.40
11415;BME280;5763;42.714;23.244;2023-09-19T08:31:13;94821.38;;;21.94;56.73
11415;BME280;5763;42.714;23.244;2023-09-19T08:33:43;94795.53;;;21.64;56.52
11415;BME280;5763;42.714;23.244;2023-09-19T08:36:14;94813.00;;;22.23;55.51
11415;BME280;5763;42.714;23.244;2023-09-19T08:38:44;94807.69;;;22.20;55.48
11415;BME280;5763;42.714;23.244;2023-09-19T08:41:12;94867.94;;;22.58;55.63
11415;BME280;5763;42.714;23.244;2023-09-19T08:43:40;94810.94;;;22.24;55.23
11415;BME280;5763;42.714;23.244;2023-09-19T08:46:10;94799.06;;;22.23;55.39
11415;BME280;5763;42.714;23.244;2023-09-19T08:48:45;94743.81;;;21.74;55.09
11415;BME280;5763;42.714;23.244;2023-09-19T08:51:18;94777.22;;;22.03;54.72
11415;BME280;5763;42.714;23.244;2023-09-19T08:54:03;94739.63;;;21.86;53.67
11415;BME280;5763;42.714;23.244;2023-09-19T08:56:33;94782.31;;;22.23;53.99
11415;BME280;5763;42.714;23.244;2023-09-19T08:59:05;94804.16;;;22.43;54.20
11415;BME280;5763;42.714;23.244;2023-09-19T09:01:33;94856.84;;;22.95;53.26
11415;BME280;5763;42.714;23.244;2023-09-19T09:04:02;94834.44;;;23.00;52.88
11415;BME280;5763;42.714;23.244;2023-09-19T09:06:29;94792.78;;;22.84;52.78
11415;BME280;5763;42.714;23.244;2023-09-19T09:08:59;94780.25;;;22.90;52.05
11415;BME280;5763;42.714;23.244;2023-09-19T09:11:27;94841.38;;;23.49;51.31
11415;BME280;5763;42.714;23.244;2023-09-19T09:13:55;94801.09;;;23.26;51.32
11415;BME280;5763;42.714;23.244;2023-09-19T09:16:23;94779.28;;;23.25;51.04
11415;BME280;5763;42.714;23.244;2023-09-19T09:18:51;94746.47;;;22.94;51.73
11415;BME280;5763;42.714;23.244;2023-09-19T09:21:20;94823.34;;;23.32;52.08
11415;BME280;5763;42.714;23.244;2023-09-19T09:23:47;94806.44;;;23.24;51.32
11415;BME280;5763;42.714;23.244;2023-09-19T09:26:16;94850.53;;;23.50;51.30
11415;BME280;5763;42.714;23.244;2023-09-19T09:28:45;94789.00;;;23.37;50.94
11415;BME280;5763;42.714;23.244;2023-09-19T09:31:22;94820.09;;;23.46;51.01
11415;BME280;5763;42.714;23.244;2023-09-19T09:33:52;94819.44;;;23.72;51.00
11415;BME280;5763;42.714;23.244;2023-09-19T09:36:33;94684.25;;;23.30;50.22
11415;BME280;5763;42.714;23.244;2023-09-19T09:39:02;94666.78;;;23.56;49.18
11415;BME280;5763;42.714;23.244;2023-09-19T09:41:43;94652.84;;;23.82;48.09
11415;BME280;5763;42.714;23.244;2023-09-19T09:44:15;94786.28;;;24.65;47.54
11415;BME280;5763;42.714;23.244;2023-09-19T09:46:43;94704.28;;;24.18;47.18
11415;BME280;5763;42.714;23.244;2023-09-19T09:49:26;94788.22;;;24.70;47.42
11415;BME280;5763;42.714;23.244;2023-09-19T09:52:01;94719.44;;;24.09;47.21
11415;BME280;5763;42.714;23.244;2023-09-19T09:54:31;94746.47;;;24.20;47.85
11415;BME280;5763;42.714;23.244;2023-09-19T09:57:05;94768.81;;;24.07;48.82
11415;BME280;5763;42.714;23.244;2023-09-19T09:59:47;94645.56;;;23.34;48.56
11415;BME280;5763;42.714;23.244;2023-09-19T10:02:15;94806.16;;;24.22;48.70
11415;BME280;5763;42.714;23.244;2023-09-19T10:04:50;94673.09;;;23.30;49.28
11415;BME280;5763;42.714;23.244;2023-09-19T10:07:29;94765.50;;;23.77;49.91
11415;BME280;5763;42.714;23.244;2023-09-19T10:10:02;94648.38;;;23.03;49.70
11415;BME280;5763;42.714;23.244;2023-09-19T10:12:49;94778.88;;;23.84;50.12
11415;BME280;5763;42.714;23.244;2023-09-19T10:15:24;94651.69;;;23.01;50.01
11415;BME280;5763;42.714;23.244;2023-09-19T10:17:55;94782.06;;;23.75;49.75
11415;BME280;5763;42.714;23.244;2023-09-19T10:20:24;94785.34;;;23.92;49.59
11415;BME280;5763;42.714;23.244;2023-09-19T10:23:06;94749.56;;;23.72;49.95
11415;BME280;5763;42.714;23.244;2023-09-19T10:25:38;94651.34;;;22.92;50.25
11415;BME280;5763;42.714;23.244;2023-09-19T10:28:08;94732.03;;;23.27;50.08
11415;BME280;5763;42.714;23.244;2023-09-19T10:30:38;94660.25;;;22.90;50.23
11415;BME280;5763;42.714;23.244;2023-09-19T10:33:08;94683.19;;;23.15;50.29
11415;BME280;5763;42.714;23.244;2023-09-19T10:35:38;94747.59;;;23.54;50.22
11415;BME280;5763;42.714;23.244;2023-09-19T10:38:06;94778.53;;;23.87;50.22
11415;BME280;5763;42.714;23.244;2023-09-19T10:40:35;94760.34;;;23.81;50.41
11415;BME280;5763;42.714;23.244;2023-09-19T10:43:12;94697.31;;;23.22;50.54
11415;BME280;5763;42.714;23.244;2023-09-19T10:45:41;94709.09;;;23.47;51.47
11415;BME280;5763;42.714;23.244;2023-09-19T10:48:10;94730.41;;;23.50;52.16
11415;BME280;5763;42.714;23.244;2023-09-19T10:50:44;94631.69;;;22.97;51.36
11415;BME280;5763;42.714;23.244;2023-09-19T10:53:14;94666.53;;;23.28;51.30
11415;BME280;5763;42.714;23.244;2023-09-19T10:55:50;94710.19;;;23.57;51.26
11415;BME280;5763;42.714;23.244;2023-09-19T10:58:28;94690.88;;;23.59;51.61
11415;BME280;5763;42.714;23.244;2023-09-19T11:00:57;94691.84;;;23.61;50.93
11415;BME280;5763;42.714;23.244;2023-09-19T11:03:31;94749.44;;;24.09;50.89
11415;BME280;5763;42.714;23.244;2023-09-19T11:06:10;94754.28;;;24.21;50.71
11415;BME280;5763;42.714;23.244;2023-09-19T11:08:55;94759.88;;;24.21;50.95
11415;BME280;5763;42.714;23.244;2023-09-19T11:11:53;94758.72;;;24.17;51.09
11415;BME280;5763;42.714;23.244;2023-09-19T11:14:30;94701.06;;;24.01;50.17
11415;BME280;5763;42.714;23.244;2023-09-19T11:20:30;94686.00;;;23.91;50.33
11415;BME280;5763;42.714;23.244;2023-09-19T11:23:23;94744.50;;;24.54;49.38
11415;BME280;5763;42.714;23.244;2023-09-19T11:25:53;94664.47;;;24.25;47.62
11415;BME280;5763;42.714;23.244;2023-09-19T11:28:34;94679.41;;;24.53;47.53
11415;BME280;5763;42.714;23.244;2023-09-19T11:34:45;94667.53;;;24.73;47.13
11415;BME280;5763;42.714;23.244;2023-09-19T11:40:38;94702.59;;;24.87;46.76
11415;BME280;5763;42.714;23.244;2023-09-19T11:43:32;94635.41;;;24.41;47.22
11415;BME280;5763;42.714;23.244;2023-09-19T11:46:10;94573.16;;;24.01;47.74
11415;BME280;5763;42.714;23.244;2023-09-19T11:48:41;94579.13;;;24.31;47.09
11415;BME280;5763;42.714;23.244;2023-09-19T11:51:16;94696.19;;;25.54;45.88
11415;BME280;5763;42.714;23.244;2023-09-19T11:53:48;94690.72;;;25.69;45.40
11415;BME280;5763;42.714;23.244;2023-09-19T11:56:17;94715.09;;;26.02;44.73
11415;BME280;5763;42.714;23.244;2023-09-19T11:58:45;94685.94;;;26.33;43.84
11415;BME280;5763;42.714;23.244;2023-09-19T12:01:16;94682.53;;;26.62;43.18
11415;BME280;5763;42.714;23.244;2023-09-19T12:03:53;94669.69;;;26.74;42.69
11415;BME280;5763;42.714;23.244;2023-09-19T12:06:24;94542.66;;;26.38;42.03
11415;BME280;5763;42.714;23.244;2023-09-19T12:08:53;94543.91;;;27.03;40.74
11415;BME280;5763;42.714;23.244;2023-09-19T12:11:22;94621.06;;;28.22;39.34
11415;BME280;5763;42.714;23.244;2023-09-19T12:13:50;94549.56;;;28.25;37.99
11415;BME280;5763;42.714;23.244;2023-09-19T12:16:19;94563.13;;;28.90;36.99
11415;BME280;5763;42.714;23.244;2023-09-19T12:18:49;94528.47;;;29.05;35.58
11415;BME280;5763;42.714;23.244;2023-09-19T12:21:26;94619.09;;;29.99;34.96
11415;BME280;5763;42.714;23.244;2023-09-19T12:24:11;94650.53;;;30.37;35.08
11415;BME280;5763;42.714;23.244;2023-09-19T12:26:43;94514.56;;;29.73;33.92
11415;BME280;5763;42.714;23.244;2023-09-19T12:29:14;94597.63;;;30.55;33.33
11415;BME280;5763;42.714;23.244;2023-09-19T12:31:50;94524.00;;;30.36;33.57
11415;BME280;5763;42.714;23.244;2023-09-19T12:34:22;94543.50;;;30.41;32.85
11415;BME280;5763;42.714;23.244;2023-09-19T12:37:07;94620.00;;;31.30;32.89
11415;BME280;5763;42.714;23.244;2023-09-19T12:39:39;94602.91;;;31.38;31.91
11415;BME280;5763;42.714;23.244;2023-09-19T12:42:08;94590.41;;;31.14;31.88
11415;BME280;5763;42.714;23.244;2023-09-19T12:44:37;94568.22;;;31.11;31.45
11415;BME280;5763;42.714;23.244;2023-09-19T12:47:15;94540.66;;;30.75;31.80
11415;BME280;5763;42.714;23.244;2023-09-19T12:50:08;94635.91;;;31.62;31.38
11415;BME280;5763;42.714;23.244;2023-09-19T12:52:43;94645.25;;;31.55;31.38
11415;BME280;5763;42.714;23.244;2023-09-19T12:55:23;94573.00;;;31.18;31.54
11415;BME280;5763;42.714;23.244;2023-09-19T12:57:58;94635.16;;;31.25;31.54
11415;BME280;5763;42.714;23.244;2023-09-19T13:00:35;94565.53;;;30.43;31.89
11415;BME280;5763;42.714;23.244;2023-09-19T13:03:16;94620.09;;;31.23;31.79
11415;BME280;5763;42.714;23.244;2023-09-19T13:05:54;94618.88;;;31.43;31.40
11415;BME280;5763;42.714;23.244;2023-09-19T13:08:28;94625.88;;;31.42;31.61
11415;BME280;5763;42.714;23.244;2023-09-19T13:11:04;94596.44;;;31.54;31.11
11415;BME280;5763;42.714;23.244;2023-09-19T13:13:32;94573.00;;;31.44;31.15
11415;BME280;5763;42.714;23.244;2023-09-19T13:16:02;94617.78;;;31.74;31.21
11415;BME280;5763;42.714;23.244;2023-09-19T13:18:30;94627.41;;;31.62;31.43
11415;BME280;5763;42.714;23.244;2023-09-19T13:21:08;94592.81;;;31.18;32.00
11415;BME280;5763;42.714;23.244;2023-09-19T13:23:39;94525.13;;;30.67;31.97
11415;BME280;5763;42.714;23.244;2023-09-19T13:26:06;94606.31;;;31.10;32.07
11415;BME280;5763;42.714;23.244;2023-09-19T13:28:33;94596.66;;;31.13;31.93
11415;BME280;5763;42.714;23.244;2023-09-19T13:31:02;94504.56;;;30.40;31.95